Time;durP1;ratioP1;P1;durP2;ratioP2;P2;SDS_P1;SDS_P2;PMS_P1;PMS_P2;Temp;Humidity;BMP_temperature;BMP_pressure;BME280_temperature;BME280_humidity;BME280_pressure;Samples;Min_cycle;Max_cycle;Signal;HPM_P1;HPM_P2
2023/04/08 00:00:22;;;;;;;;;;;8.10;99.90;;;;;;4944104;28;19918;-70
2023/04/08 00:02:48;;;;;;;;;;;8.10;99.90;;;;;;4940141;29;19949;-70
2023/04/08 00:05:14;;;;;;;;;;;8.10;99.90;;;;;;4902880;29;19919;-70
2023/04/08 00:07:40;;;;;;;;;;;7.90;99.90;;;;;;4921266;29;20024;-70
2023/04/08 00:10:07;;;;;;;;;;;8.00;99.90;;;;;;4944012;29;19918;-70
2023/04/08 00:12:32;;;;;;;;;;;7.90;99.90;;;;;;4931194;29;20524;-71
2023/04/08 00:14:58;;;;;;;;;;;7.90;99.90;;;;;;4901333;29;19927;-70
2023/04/08 00:17:25;;;;;;;;;;;7.90;99.90;;;;;;4952442;29;19928;-70
2023/04/08 00:19:51;;;;;;;;;;;7.90;99.90;;;;;;4907675;29;20013;-71
2023/04/08 00:22:17;;;;;;;;;;;7.90;99.90;;;;;;4934949;29;20310;-70
2023/04/08 00:24:43;;;;;;;;;;;7.90;99.90;;;;;;4937120;29;20292;-70
2023/04/08 00:27:08;;;;;;;;;;;7.90;99.90;;;;;;4939997;29;20261;-70
2023/04/08 00:29:34;;;;;;;;;;;7.80;99.90;;;;;;4941759;29;19929;-70
2023/04/08 00:32:00;;;;;;;;;;;7.70;99.90;;;;;;4924566;29;19957;-70
2023/04/08 00:34:25;;;;;;;;;;;7.80;99.90;;;;;;4922968;29;20349;-71
2023/04/08 00:36:51;;;;;;;;;;;7.80;99.90;;;;;;4911335;29;19918;-70
2023/04/08 00:39:17;;;;;;;;;;;7.80;99.90;;;;;;4908371;29;20209;-70
2023/04/08 00:41:43;;;;;;;;;;;7.80;99.90;;;;;;4956646;28;20299;-71
2023/04/08 00:44:10;;;;;;;;;;;7.90;99.90;;;;;;4944614;29;19910;-71
2023/04/08 00:46:37;;;;;;;;;;;7.90;99.90;;;;;;4957098;28;20484;-70
2023/04/08 00:49:03;;;;;;;;;;;7.80;99.90;;;;;;4912466;29;19925;-70
2023/04/08 00:51:30;;;;;;;;;;;7.70;99.90;;;;;;4934776;29;20324;-70
2023/04/08 00:53:55;;;;;;;;;;;7.70;99.90;;;;;;4945659;29;20316;-71
2023/04/08 00:56:21;;;;;;;;;;;7.70;99.90;;;;;;4932937;29;19973;-71
2023/04/08 00:58:47;;;;;;;;;;;7.70;99.90;;;;;;4949097;28;19929;-71
2023/04/08 01:01:14;;;;;;;;;;;7.70;99.90;;;;;;4959580;28;20338;-71
2023/04/08 01:03:40;;;;;;;;;;;7.70;99.90;;;;;;4957818;28;19969;-70
2023/04/08 01:06:08;;;;;;;;;;;7.50;99.90;;;;;;4931218;29;20553;-70
2023/04/08 01:08:34;;;;;;;;;;;7.60;99.90;;;;;;4955768;28;19926;-70
2023/04/08 01:11:00;;;;;;;;;;;7.70;99.90;;;;;;4935813;29;19914;-71
2023/04/08 01:13:27;;;;;;;;;;;7.50;99.90;;;;;;4927789;29;19946;-71
2023/04/08 01:15:53;;;;;;;;;;;7.60;99.90;;;;;;4957464;28;19925;-71
2023/04/08 01:18:18;;;;;;;;;;;7.60;99.90;;;;;;4926440;29;20243;-71
2023/04/08 01:20:44;;;;;;;;;;;7.60;99.90;;;;;;4901500;29;19929;-70
2023/04/08 01:23:12;;;;;;;;;;;7.70;99.90;;;;;;4941390;29;20009;-71
2023/04/08 01:25:38;;;;;;;;;;;7.70;99.90;;;;;;4961323;28;20223;-70
2023/04/08 01:28:04;;;;;;;;;;;7.70;99.90;;;;;;4934571;29;19934;-71
2023/04/08 01:30:31;;;;;;;;;;;7.70;99.90;;;;;;4947464;29;20315;-70
2023/04/08 01:32:56;;;;;;;;;;;7.70;99.90;;;;;;4953128;28;19915;-71
2023/04/08 01:35:22;;;;;;;;;;;7.50;99.90;;;;;;4938668;29;20037;-71
2023/04/08 01:37:48;;;;;;;;;;;7.60;99.90;;;;;;4933752;29;19921;-71
2023/04/08 01:40:13;;;;;;;;;;;7.60;99.90;;;;;;4939453;29;20761;-71
2023/04/08 01:42:39;;;;;;;;;;;7.70;99.90;;;;;;4961169;28;19914;-70
2023/04/08 01:45:05;;;;;;;;;;;7.60;99.90;;;;;;4955033;28;20318;-71
2023/04/08 01:47:30;;;;;;;;;;;7.50;99.90;;;;;;4923187;29;19921;-71
2023/04/08 01:49:56;;;;;;;;;;;7.60;99.90;;;;;;4923288;29;19990;-71
2023/04/08 01:52:22;;;;;;;;;;;7.70;99.90;;;;;;4928191;29;19918;-71
2023/04/08 01:54:47;;;;;;;;;;;7.70;99.90;;;;;;4961932;28;19961;-71
2023/04/08 01:57:14;;;;;;;;;;;7.60;99.90;;;;;;4939007;29;20342;-71
2023/04/08 01:59:40;;;;;;;;;;;7.70;99.90;;;;;;4958458;28;19919;-71
2023/04/08 02:02:07;;;;;;;;;;;7.70;99.90;;;;;;4920185;29;19925;-71
2023/04/08 02:04:35;;;;;;;;;;;7.60;99.90;;;;;;4916103;29;19915;-71
2023/04/08 02:07:01;;;;;;;;;;;7.60;99.90;;;;;;4927468;29;20255;-71
2023/04/08 02:09:27;;;;;;;;;;;7.50;99.90;;;;;;4938936;29;19914;-71
2023/04/08 02:11:52;;;;;;;;;;;7.50;99.90;;;;;;4957164;28;19942;-71
2023/04/08 02:14:18;;;;;;;;;;;7.60;99.90;;;;;;4929141;29;20251;-71
2023/04/08 02:16:54;;;;;;;;;;;7.60;99.90;;;;;;4905801;29;20347;-71
2023/04/08 02:19:30;;;;;;;;;;;7.60;99.90;;;;;;4916881;29;19973;-71
2023/04/08 02:22:01;;;;;;;;;;;7.60;99.90;;;;;;4934113;28;19914;-71
2023/04/08 02:24:27;;;;;;;;;;;7.50;99.90;;;;;;4962368;28;19914;-71
2023/04/08 02:26:52;;;;;;;;;;;7.50;99.90;;;;;;4949784;29;19978;-71
2023/04/08 02:29:18;;;;;;;;;;;7.50;99.90;;;;;;4953522;29;20394;-71
2023/04/08 02:31:44;;;;;;;;;;;7.50;99.90;;;;;;4947404;29;19919;-71
2023/04/08 02:34:10;;;;;;;;;;;7.50;99.90;;;;;;4943132;29;20605;-71
2023/04/08 02:36:39;;;;;;;;;;;7.50;99.90;;;;;;4953447;28;19914;-71
2023/04/08 02:39:05;;;;;;;;;;;7.40;99.90;;;;;;4940675;29;19918;-70
2023/04/08 02:41:31;;;;;;;;;;;7.50;99.90;;;;;;4937452;29;19936;-71
2023/04/08 02:43:56;;;;;;;;;;;7.40;99.90;;;;;;4936144;29;20337;-71
2023/04/08 02:46:22;;;;;;;;;;;7.30;99.90;;;;;;4945360;29;20390;-71
2023/04/08 02:48:48;;;;;;;;;;;7.40;99.90;;;;;;4900466;29;20787;-71
2023/04/08 02:51:14;;;;;;;;;;;7.40;99.90;;;;;;4925062;29;19918;-71
2023/04/08 02:53:40;;;;;;;;;;;7.50;99.90;;;;;;4921503;29;19915;-71
2023/04/08 02:56:05;;;;;;;;;;;7.50;99.90;;;;;;4925090;29;20480;-71
2023/04/08 02:58:32;;;;;;;;;;;7.50;99.90;;;;;;4952774;29;19918;-71
2023/04/08 03:00:58;;;;;;;;;;;7.50;99.90;;;;;;4928497;29;19915;-71
2023/04/08 03:03:28;;;;;;;;;;;7.50;99.90;;;;;;4955844;28;20001;-71
2023/04/08 03:05:54;;;;;;;;;;;7.20;99.90;;;;;;4949115;29;19965;-71
2023/04/08 03:08:19;;;;;;;;;;;7.40;99.90;;;;;;4933242;29;20386;-71
2023/04/08 03:10:45;;;;;;;;;;;7.40;99.90;;;;;;4940793;29;20029;-71
2023/04/08 03:13:11;;;;;;;;;;;7.30;99.90;;;;;;4963955;28;19915;-70
2023/04/08 03:15:36;;;;;;;;;;;7.40;99.90;;;;;;4932287;29;19914;-71
2023/04/08 03:18:02;;;;;;;;;;;7.40;99.90;;;;;;4953838;29;20379;-70
2023/04/08 03:20:28;;;;;;;;;;;7.40;99.90;;;;;;4931521;29;20346;-71
2023/04/08 03:22:53;;;;;;;;;;;7.40;99.90;;;;;;4951158;28;20418;-71
2023/04/08 03:25:19;;;;;;;;;;;7.40;99.90;;;;;;4925585;29;19915;-71
2023/04/08 03:27:45;;;;;;;;;;;7.40;99.90;;;;;;4950322;29;20240;-71
2023/04/08 03:30:10;;;;;;;;;;;7.20;99.90;;;;;;4939977;29;19965;-71
2023/04/08 03:32:36;;;;;;;;;;;7.20;99.90;;;;;;4946636;29;19914;-71
2023/04/08 03:35:02;;;;;;;;;;;7.30;99.90;;;;;;4944606;28;19961;-71
2023/04/08 03:37:28;;;;;;;;;;;7.40;99.90;;;;;;4908468;29;19918;-71
2023/04/08 03:39:54;;;;;;;;;;;7.40;99.90;;;;;;4931852;29;19918;-71
2023/04/08 03:42:20;;;;;;;;;;;7.40;99.90;;;;;;4902908;29;20001;-71
2023/04/08 03:44:45;;;;;;;;;;;7.40;99.90;;;;;;4945347;29;19998;-71
2023/04/08 03:47:11;;;;;;;;;;;7.40;99.90;;;;;;4941393;29;20064;-71
2023/04/08 03:49:36;;;;;;;;;;;7.30;99.90;;;;;;4926525;29;19914;-71
2023/04/08 03:52:02;;;;;;;;;;;7.30;99.90;;;;;;4930448;29;19915;-71
2023/04/08 03:54:28;;;;;;;;;;;7.40;99.90;;;;;;4922564;29;19957;-71
2023/04/08 03:56:53;;;;;;;;;;;7.40;99.90;;;;;;4918344;29;19969;-71
2023/04/08 03:59:19;;;;;;;;;;;7.40;99.90;;;;;;4903211;29;19933;-71
2023/04/08 04:01:45;;;;;;;;;;;7.40;99.90;;;;;;4905459;29;20033;-71
2023/04/08 04:04:10;;;;;;;;;;;7.40;99.90;;;;;;4920286;29;19966;-71
2023/04/08 04:06:36;;;;;;;;;;;7.40;99.90;;;;;;4947718;29;20609;-71
2023/04/08 04:09:02;;;;;;;;;;;7.40;99.90;;;;;;4908797;29;19918;-70
2023/04/08 04:11:28;;;;;;;;;;;7.40;99.90;;;;;;4935376;29;19978;-71
2023/04/08 04:13:53;;;;;;;;;;;7.40;99.90;;;;;;4947979;29;19914;-71
2023/04/08 04:16:19;;;;;;;;;;;7.40;99.90;;;;;;4962323;28;20051;-71
2023/04/08 04:18:45;;;;;;;;;;;7.40;99.90;;;;;;4959748;28;19937;-71
2023/04/08 04:21:10;;;;;;;;;;;7.40;99.90;;;;;;4942652;29;19922;-71
2023/04/08 04:23:36;;;;;;;;;;;7.40;99.90;;;;;;4929331;29;20383;-70
2023/04/08 04:26:06;;;;;;;;;;;7.50;99.90;;;;;;4948258;29;20255;-71
2023/04/08 04:28:32;;;;;;;;;;;7.50;99.90;;;;;;4927246;29;20276;-71
2023/04/08 04:30:57;;;;;;;;;;;7.50;99.90;;;;;;4957495;28;19926;-71
2023/04/08 04:33:23;;;;;;;;;;;7.50;99.90;;;;;;4959720;28;19953;-70
2023/04/08 04:35:49;;;;;;;;;;;7.50;99.90;;;;;;4926692;29;19914;-71
2023/04/08 04:38:15;;;;;;;;;;;7.50;99.90;;;;;;4944737;29;19914;-70
2023/04/08 04:40:40;;;;;;;;;;;7.40;99.90;;;;;;4928924;29;19986;-71
2023/04/08 04:43:07;;;;;;;;;;;7.40;99.90;;;;;;4923444;29;19915;-71
2023/04/08 04:45:33;;;;;;;;;;;7.40;99.90;;;;;;4942157;29;19915;-71
2023/04/08 04:47:59;;;;;;;;;;;7.30;99.90;;;;;;4926220;29;19946;-71
2023/04/08 04:50:25;;;;;;;;;;;7.30;99.90;;;;;;4896562;29;19930;-71
2023/04/08 04:52:50;;;;;;;;;;;7.30;99.90;;;;;;4925819;29;20634;-71
2023/04/08 04:55:16;;;;;;;;;;;7.40;99.90;;;;;;4927061;29;19921;-71
2023/04/08 04:57:43;;;;;;;;;;;7.40;99.90;;;;;;4929284;29;19915;-71
2023/04/08 05:00:09;;;;;;;;;;;7.40;99.90;;;;;;4943392;29;19922;-71
2023/04/08 05:02:35;;;;;;;;;;;7.40;99.90;;;;;;4904265;29;19919;-71
2023/04/08 05:05:00;;;;;;;;;;;7.30;99.90;;;;;;4960673;28;19926;-70
2023/04/08 05:07:26;;;;;;;;;;;7.40;99.90;;;;;;4959101;28;19925;-71
2023/04/08 05:09:52;;;;;;;;;;;7.40;99.90;;;;;;4913987;29;19979;-71
2023/04/08 05:12:21;;;;;;;;;;;7.30;99.90;;;;;;4947207;29;19918;-71
2023/04/08 05:14:46;;;;;;;;;;;7.20;99.90;;;;;;4944131;29;20017;-70
2023/04/08 05:17:12;;;;;;;;;;;7.30;99.90;;;;;;4941757;29;20010;-71
2023/04/08 05:19:38;;;;;;;;;;;7.30;99.90;;;;;;4958931;28;19997;-71
2023/04/08 05:22:03;;;;;;;;;;;7.20;99.90;;;;;;4941467;29;19911;-70
2023/04/08 05:24:29;;;;;;;;;;;7.20;99.90;;;;;;4957982;28;19922;-71
2023/04/08 05:26:56;;;;;;;;;;;7.30;99.90;;;;;;4927352;29;20402;-71
2023/04/08 05:29:22;;;;;;;;;;;7.40;99.90;;;;;;4959303;28;19915;-71
2023/04/08 05:31:48;;;;;;;;;;;7.40;99.90;;;;;;4910393;29;20383;-71
2023/04/08 05:34:14;;;;;;;;;;;7.30;99.90;;;;;;4906524;29;19915;-71
2023/04/08 05:36:40;;;;;;;;;;;7.30;99.90;;;;;;4943509;29;19918;-71
2023/04/08 05:39:05;;;;;;;;;;;7.10;99.90;;;;;;4939049;29;20665;-71
2023/04/08 05:41:31;;;;;;;;;;;7.10;99.90;;;;;;4910681;29;19914;-71
2023/04/08 05:43:57;;;;;;;;;;;7.20;99.90;;;;;;4951108;28;20353;-71
2023/04/08 05:46:22;;;;;;;;;;;7.20;99.90;;;;;;4955331;28;19995;-71
2023/04/08 05:48:48;;;;;;;;;;;7.30;99.90;;;;;;4925815;29;19954;-71
2023/04/08 05:51:14;;;;;;;;;;;7.30;99.90;;;;;;4938192;29;19914;-71
2023/04/08 05:53:40;;;;;;;;;;;7.20;99.90;;;;;;4946986;29;19976;-71
2023/04/08 05:56:05;;;;;;;;;;;7.30;99.90;;;;;;4924694;29;19914;-71
2023/04/08 05:58:31;;;;;;;;;;;7.30;99.90;;;;;;4925146;29;19921;-71
2023/04/08 06:00:57;;;;;;;;;;;7.30;99.90;;;;;;4905738;29;19919;-71
2023/04/08 06:03:22;;;;;;;;;;;7.20;99.90;;;;;;4954394;28;19977;-71
2023/04/08 06:05:48;;;;;;;;;;;7.30;99.90;;;;;;4939580;29;19954;-71
2023/04/08 06:08:14;;;;;;;;;;;7.30;99.90;;;;;;4910682;29;19926;-71
2023/04/08 06:10:39;;;;;;;;;;;7.30;99.90;;;;;;4948337;29;20311;-71
2023/04/08 06:13:05;;;;;;;;;;;7.30;99.90;;;;;;4971094;28;19915;-71
2023/04/08 06:15:31;;;;;;;;;;;7.30;99.90;;;;;;4953912;28;19925;-71
2023/04/08 06:17:58;;;;;;;;;;;7.40;99.90;;;;;;4962961;28;19922;-71
2023/04/08 06:20:24;;;;;;;;;;;7.40;99.90;;;;;;4917105;29;19930;-71
2023/04/08 06:22:50;;;;;;;;;;;7.40;99.90;;;;;;4912708;29;19922;-71
2023/04/08 06:25:16;;;;;;;;;;;7.50;99.90;;;;;;4958809;28;19915;-71
2023/04/08 06:27:42;;;;;;;;;;;7.40;99.90;;;;;;4935768;29;19919;-71
2023/04/08 06:30:08;;;;;;;;;;;7.40;99.90;;;;;;4943404;29;19985;-71
2023/04/08 06:32:34;;;;;;;;;;;7.50;99.90;;;;;;4904692;29;19923;-71
2023/04/08 06:35:00;;;;;;;;;;;7.60;99.90;;;;;;4897318;29;19924;-71
2023/04/08 06:37:26;;;;;;;;;;;7.60;99.90;;;;;;4908641;29;19914;-71
2023/04/08 06:39:51;;;;;;;;;;;7.50;99.90;;;;;;4908031;29;20231;-71
2023/04/08 06:42:17;;;;;;;;;;;7.50;99.90;;;;;;4945534;29;19926;-71
2023/04/08 06:44:42;;;;;;;;;;;7.50;99.90;;;;;;4913468;29;19937;-71
2023/04/08 06:47:09;;;;;;;;;;;7.40;99.90;;;;;;4952310;29;19914;-71
2023/04/08 06:49:36;;;;;;;;;;;7.50;99.90;;;;;;4909952;29;19947;-71
2023/04/08 06:52:01;;;;;;;;;;;7.40;99.90;;;;;;4964209;28;19944;-71
2023/04/08 06:54:27;;;;;;;;;;;7.50;99.90;;;;;;4911115;29;19914;-71
2023/04/08 06:56:53;;;;;;;;;;;7.40;99.90;;;;;;4943163;29;19921;-71
2023/04/08 06:59:18;;;;;;;;;;;7.30;99.90;;;;;;4928066;29;20001;-71
2023/04/08 07:01:44;;;;;;;;;;;7.40;99.90;;;;;;4924314;29;20438;-71
2023/04/08 07:04:10;;;;;;;;;;;7.40;99.90;;;;;;4924900;29;20290;-71
2023/04/08 07:06:36;;;;;;;;;;;7.50;99.90;;;;;;4921453;29;19926;-71
2023/04/08 07:09:01;;;;;;;;;;;7.40;99.90;;;;;;4925824;29;19914;-71
2023/04/08 07:11:28;;;;;;;;;;;7.30;99.90;;;;;;4952980;29;19922;-71
2023/04/08 07:13:53;;;;;;;;;;;7.50;99.90;;;;;;4951060;28;19914;-71
2023/04/08 07:16:19;;;;;;;;;;;7.50;99.90;;;;;;4932081;29;20343;-71
2023/04/08 07:18:46;;;;;;;;;;;7.60;99.90;;;;;;4955949;28;20437;-71
2023/04/08 07:21:11;;;;;;;;;;;7.50;99.90;;;;;;4929726;29;19990;-71
2023/04/08 07:23:37;;;;;;;;;;;7.50;99.90;;;;;;4922490;29;20265;-71
2023/04/08 07:26:04;;;;;;;;;;;7.60;99.90;;;;;;4919597;29;20005;-71
2023/04/08 07:28:29;;;;;;;;;;;7.70;99.90;;;;;;4927628;29;19922;-71
2023/04/08 07:30:56;;;;;;;;;;;7.60;99.90;;;;;;4901798;29;19974;-71
2023/04/08 07:33:22;;;;;;;;;;;7.70;99.90;;;;;;4925516;29;19911;-75
2023/04/08 07:35:48;;;;;;;;;;;7.80;99.90;;;;;;4905553;29;19911;-75
2023/04/08 07:38:13;;;;;;;;;;;7.90;99.90;;;;;;4926749;29;20316;-75
2023/04/08 07:40:39;;;;;;;;;;;8.00;99.90;;;;;;4904844;29;20343;-74
2023/04/08 07:43:05;;;;;;;;;;;8.10;99.90;;;;;;4931815;29;19921;-74
2023/04/08 07:45:30;;;;;;;;;;;8.00;99.90;;;;;;4926176;29;20285;-74
2023/04/08 07:47:56;;;;;;;;;;;7.90;99.90;;;;;;4892852;29;19957;-74
2023/04/08 07:50:22;;;;;;;;;;;8.00;99.90;;;;;;4920673;29;19911;-75
2023/04/08 07:52:47;;;;;;;;;;;8.00;99.90;;;;;;4906604;29;19911;-75
2023/04/08 07:55:13;;;;;;;;;;;8.10;99.90;;;;;;4921440;29;19918;-73
2023/04/08 07:57:39;;;;;;;;;;;8.20;99.90;;;;;;4901370;29;20248;-74
2023/04/08 08:00:06;;;;;;;;;;;8.30;99.90;;;;;;4910970;29;19923;-74
2023/04/08 08:02:32;;;;;;;;;;;8.30;99.90;;;;;;4927239;29;20308;-73
2023/04/08 08:04:59;;;;;;;;;;;8.30;99.90;;;;;;4935851;29;19915;-74
2023/04/08 08:07:25;;;;;;;;;;;8.20;99.90;;;;;;4913278;29;19919;-73
2023/04/08 08:09:51;;;;;;;;;;;8.10;99.90;;;;;;4915918;29;20644;-73
2023/04/08 08:12:16;;;;;;;;;;;8.10;99.90;;;;;;4897346;29;20320;-74
2023/04/08 08:14:42;;;;;;;;;;;8.00;99.90;;;;;;4914506;29;19918;-74
2023/04/08 08:17:08;;;;;;;;;;;8.10;99.90;;;;;;4914496;29;20597;-74
2023/04/08 08:19:33;;;;;;;;;;;8.10;99.90;;;;;;4936326;29;19922;-73
2023/04/08 08:21:59;;;;;;;;;;;8.20;99.90;;;;;;4941841;28;19911;-73
2023/04/08 08:24:25;;;;;;;;;;;8.20;99.90;;;;;;4921173;29;20561;-73
2023/04/08 08:26:52;;;;;;;;;;;8.20;99.90;;;;;;4905573;29;19925;-73
2023/04/08 08:29:18;;;;;;;;;;;8.30;99.90;;;;;;4922305;29;19910;-73
2023/04/08 08:31:43;;;;;;;;;;;8.30;99.90;;;;;;4904492;29;19922;-73
2023/04/08 08:34:09;;;;;;;;;;;8.20;99.90;;;;;;4953549;28;19914;-73
2023/04/08 08:36:35;;;;;;;;;;;8.20;99.90;;;;;;4946706;28;19969;-71
2023/04/08 08:39:01;;;;;;;;;;;8.30;99.90;;;;;;4935945;29;20009;-71
2023/04/08 08:41:31;;;;;;;;;;;8.30;99.90;;;;;;4903800;29;20004;-71
2023/04/08 08:43:57;;;;;;;;;;;8.30;99.90;;;;;;4961166;28;19915;-71
2023/04/08 08:46:23;;;;;;;;;;;8.30;99.90;;;;;;4937638;29;20220;-70
2023/04/08 08:48:48;;;;;;;;;;;8.30;99.90;;;;;;4953640;28;19915;-71
2023/04/08 08:51:14;;;;;;;;;;;8.30;99.90;;;;;;4918526;29;20264;-70
2023/04/08 08:53:44;;;;;;;;;;;8.10;99.90;;;;;;4943995;29;19914;-71
2023/04/08 08:56:09;;;;;;;;;;;8.20;99.90;;;;;;4944880;28;19965;-71
2023/04/08 08:58:36;;;;;;;;;;;8.10;99.90;;;;;;4923821;29;19929;-71
2023/04/08 09:01:01;;;;;;;;;;;8.10;99.90;;;;;;4922798;29;20014;-71
2023/04/08 09:03:27;;;;;;;;;;;8.10;99.90;;;;;;4938863;29;19993;-71
2023/04/08 09:05:54;;;;;;;;;;;8.10;99.90;;;;;;4917934;29;19921;-71
2023/04/08 09:08:23;;;;;;;;;;;8.20;99.90;;;;;;4937869;29;20264;-71
2023/04/08 09:10:48;;;;;;;;;;;8.10;99.90;;;;;;4924343;29;19914;-71
2023/04/08 09:13:14;;;;;;;;;;;8.20;99.90;;;;;;4946483;28;20722;-71
2023/04/08 09:15:59;;;;;;;;;;;8.30;99.90;;;;;;4938546;29;20299;-71
2023/04/08 09:18:25;;;;;;;;;;;8.20;99.90;;;;;;4902010;29;20125;-71
2023/04/08 09:20:51;;;;;;;;;;;8.30;99.90;;;;;;4957821;28;19922;-71
2023/04/08 09:23:16;;;;;;;;;;;8.30;99.90;;;;;;4924044;29;20335;-71
2023/04/08 09:25:42;;;;;;;;;;;8.30;99.90;;;;;;4961511;28;19914;-71
2023/04/08 09:28:17;;;;;;;;;;;8.30;99.90;;;;;;4911413;29;19922;-71
2023/04/08 09:30:43;;;;;;;;;;;8.30;99.90;;;;;;4959882;28;19925;-71
2023/04/08 09:33:09;;;;;;;;;;;8.30;99.90;;;;;;4927317;29;19914;-71
2023/04/08 09:35:35;;;;;;;;;;;8.30;99.90;;;;;;4938305;29;20336;-71
2023/04/08 09:38:01;;;;;;;;;;;8.30;99.90;;;;;;4932135;29;19914;-71
2023/04/08 09:40:30;;;;;;;;;;;8.20;99.90;;;;;;4928161;29;19918;-71
2023/04/08 09:42:56;;;;;;;;;;;8.30;99.90;;;;;;4907342;29;20006;-71
2023/04/08 09:45:22;;;;;;;;;;;8.30;99.90;;;;;;4941410;29;20060;-71
2023/04/08 09:48:06;;;;;;;;;;;8.30;99.90;;;;;;4934613;29;19942;-71
2023/04/08 09:50:34;;;;;;;;;;;8.30;99.90;;;;;;4943259;29;19910;-71
2023/04/08 09:53:01;;;;;;;;;;;8.30;99.90;;;;;;4886835;29;19915;-71
2023/04/08 09:55:27;;;;;;;;;;;8.30;99.90;;;;;;4908010;29;19925;-71
2023/04/08 09:57:52;;;;;;;;;;;8.30;99.90;;;;;;4901290;29;19915;-71
2023/04/08 10:00:18;;;;;;;;;;;8.40;99.90;;;;;;4927099;29;19929;-71
2023/04/08 10:02:59;;;;;;;;;;;8.40;99.90;;;;;;4923640;29;19921;-71
2023/04/08 10:05:25;;;;;;;;;;;8.40;99.90;;;;;;4920247;29;19945;-71
2023/04/08 10:07:50;;;;;;;;;;;8.50;99.90;;;;;;4960819;28;19954;-71
2023/04/08 10:10:16;;;;;;;;;;;8.50;99.90;;;;;;4951459;29;19914;-71
2023/04/08 10:12:42;;;;;;;;;;;8.50;99.90;;;;;;4960949;28;20240;-71
2023/04/08 10:15:47;;;;;;;;;;;8.40;99.90;;;;;;4934246;29;19965;-71
2023/04/08 10:18:13;;;;;;;;;;;8.40;99.90;;;;;;4903348;29;19919;-71
2023/04/08 10:20:39;;;;;;;;;;;8.50;99.90;;;;;;4897900;29;19924;-71
2023/04/08 10:23:08;;;;;;;;;;;8.50;99.90;;;;;;4921623;29;19973;-71
2023/04/08 10:25:33;;;;;;;;;;;8.40;99.90;;;;;;4934948;29;20614;-71
2023/04/08 10:27:59;;;;;;;;;;;8.40;99.90;;;;;;4940202;29;19914;-71
2023/04/08 10:30:31;;;;;;;;;;;8.40;99.90;;;;;;4911004;29;20001;-71
2023/04/08 10:33:00;;;;;;;;;;;8.30;99.90;;;;;;4930365;29;20326;-71
2023/04/08 10:35:35;;;;;;;;;;;8.40;99.90;;;;;;4916232;29;20652;-70
2023/04/08 10:38:02;;;;;;;;;;;8.30;99.90;;;;;;4967004;28;19925;-71
2023/04/08 10:40:28;;;;;;;;;;;8.30;99.90;;;;;;4940551;29;20009;-71
2023/04/08 10:42:54;;;;;;;;;;;8.30;99.90;;;;;;4908411;29;20017;-70
2023/04/08 10:45:21;;;;;;;;;;;8.20;99.90;;;;;;4951873;28;19922;-70
2023/04/08 10:47:46;;;;;;;;;;;8.30;99.90;;;;;;4910194;29;19950;-70
2023/04/08 10:50:16;;;;;;;;;;;8.30;99.90;;;;;;4910384;29;19974;-70
2023/04/08 10:52:45;;;;;;;;;;;8.30;99.90;;;;;;4924350;29;20048;-70
2023/04/08 10:55:11;;;;;;;;;;;8.30;99.90;;;;;;4926366;29;19910;-70
2023/04/08 10:57:39;;;;;;;;;;;8.30;99.90;;;;;;4911197;29;20235;-70
2023/04/08 11:00:08;;;;;;;;;;;8.40;99.90;;;;;;4925657;29;20386;-70
2023/04/08 11:02:33;;;;;;;;;;;8.50;99.90;;;;;;4955078;29;20335;-70
2023/04/08 11:04:59;;;;;;;;;;;8.50;99.90;;;;;;4955707;28;19922;-70
2023/04/08 11:07:25;;;;;;;;;;;8.50;99.90;;;;;;4909980;29;19918;-70
2023/04/08 11:09:51;;;;;;;;;;;8.50;99.90;;;;;;4947450;29;19920;-70
2023/04/08 11:12:17;;;;;;;;;;;8.40;99.90;;;;;;4938225;29;20258;-70
2023/04/08 11:14:43;;;;;;;;;;;8.40;99.90;;;;;;4945306;29;20346;-70
2023/04/08 11:17:09;;;;;;;;;;;8.50;99.90;;;;;;4947192;29;19997;-70
2023/04/08 11:19:35;;;;;;;;;;;8.60;99.90;;;;;;4969494;28;20013;-70
2023/04/08 11:22:01;;;;;;;;;;;8.60;99.90;;;;;;4961343;28;20330;-70
2023/04/08 11:24:29;;;;;;;;;;;8.50;99.90;;;;;;4942119;29;19921;-71
2023/04/08 11:26:56;;;;;;;;;;;8.50;99.90;;;;;;4924297;29;19982;-70
2023/04/08 11:29:21;;;;;;;;;;;8.50;99.90;;;;;;4933613;29;19925;-70
2023/04/08 11:31:48;;;;;;;;;;;8.50;99.90;;;;;;4929561;29;20001;-68
2023/04/08 11:34:20;;;;;;;;;;;8.50;99.90;;;;;;4948900;29;19919;-68
2023/04/08 11:36:46;;;;;;;;;;;8.50;99.90;;;;;;4919776;29;20021;-68
2023/04/08 11:39:12;;;;;;;;;;;8.60;99.90;;;;;;4919782;29;20009;-68
2023/04/08 11:41:38;;;;;;;;;;;8.70;99.90;;;;;;4965652;28;19910;-68
2023/04/08 11:44:05;;;;;;;;;;;8.70;99.90;;;;;;4920327;29;19915;-68
2023/04/08 11:46:34;;;;;;;;;;;8.60;99.90;;;;;;4929761;29;20335;-68
2023/04/08 11:49:06;;;;;;;;;;;8.50;99.90;;;;;;4952413;28;20332;-68
2023/04/08 11:51:33;;;;;;;;;;;8.60;99.90;;;;;;4949807;28;19926;-68
2023/04/08 11:53:59;;;;;;;;;;;8.60;99.90;;;;;;4898377;29;19910;-68
2023/04/08 11:56:25;;;;;;;;;;;8.70;99.90;;;;;;4942373;29;19918;-68
2023/04/08 11:58:54;;;;;;;;;;;8.70;99.90;;;;;;4926756;29;20327;-68
2023/04/08 12:01:20;;;;;;;;;;;8.70;99.90;;;;;;4909056;29;20085;-68
2023/04/08 12:03:58;;;;;;;;;;;8.80;99.90;;;;;;4931296;29;20009;-68
2023/04/08 12:06:27;;;;;;;;;;;8.80;99.90;;;;;;4955447;28;19965;-68
2023/04/08 12:08:54;;;;;;;;;;;8.70;99.90;;;;;;4929566;29;19949;-68
2023/04/08 12:11:19;;;;;;;;;;;8.80;99.90;;;;;;4961839;28;19914;-68
2023/04/08 12:13:45;;;;;;;;;;;8.90;99.90;;;;;;4918298;29;19919;-68
2023/04/08 12:16:11;;;;;;;;;;;8.90;99.90;;;;;;4941449;29;19911;-70
2023/04/08 12:18:37;;;;;;;;;;;8.90;99.90;;;;;;4946058;28;19919;-71
2023/04/08 12:21:02;;;;;;;;;;;9.00;99.90;;;;;;4921755;29;19915;-71
2023/04/08 12:23:28;;;;;;;;;;;9.00;99.90;;;;;;4931298;29;19943;-70
2023/04/08 12:25:57;;;;;;;;;;;9.00;99.90;;;;;;4925023;29;19919;-70
2023/04/08 12:28:22;;;;;;;;;;;8.90;99.90;;;;;;4925360;29;19971;-68
2023/04/08 12:30:48;;;;;;;;;;;8.80;99.90;;;;;;4914276;29;19955;-68
2023/04/08 12:33:14;;;;;;;;;;;8.90;99.90;;;;;;4905737;29;19915;-68
2023/04/08 12:35:40;;;;;;;;;;;8.70;99.90;;;;;;4900288;29;20224;-68
2023/04/08 12:38:05;;;;;;;;;;;8.90;99.90;;;;;;4930219;29;19914;-69
2023/04/08 12:40:31;;;;;;;;;;;8.90;99.90;;;;;;4922617;29;20561;-69
2023/04/08 12:42:56;;;;;;;;;;;9.00;99.90;;;;;;4916155;29;19919;-69
2023/04/08 12:45:22;;;;;;;;;;;9.00;99.90;;;;;;4917003;29;19922;-69
2023/04/08 12:47:48;;;;;;;;;;;9.10;99.90;;;;;;4921733;29;19915;-69
2023/04/08 12:50:14;;;;;;;;;;;9.00;99.90;;;;;;4926996;29;19953;-69
2023/04/08 12:52:41;;;;;;;;;;;9.00;99.90;;;;;;4930685;29;19954;-69
2023/04/08 12:55:06;;;;;;;;;;;9.10;99.90;;;;;;4926424;29;19915;-69
2023/04/08 12:57:32;;;;;;;;;;;9.10;99.90;;;;;;4921095;29;19922;-69
2023/04/08 12:59:58;;;;;;;;;;;9.10;99.90;;;;;;4920366;29;19973;-69
2023/04/08 13:02:25;;;;;;;;;;;9.00;99.90;;;;;;4927121;29;19997;-69
2023/04/08 13:04:52;;;;;;;;;;;9.10;99.90;;;;;;4914322;29;19915;-69
2023/04/08 13:07:18;;;;;;;;;;;9.00;99.90;;;;;;4926173;29;19978;-69
2023/04/08 13:09:43;;;;;;;;;;;9.00;99.90;;;;;;4909805;29;19926;-69
2023/04/08 13:12:11;;;;;;;;;;;9.00;99.90;;;;;;4941876;29;19997;-69
2023/04/08 13:14:37;;;;;;;;;;;9.00;99.90;;;;;;4904371;29;20005;-69
2023/04/08 13:17:03;;;;;;;;;;;9.10;99.90;;;;;;4917501;29;19965;-69
2023/04/08 13:19:28;;;;;;;;;;;9.00;99.90;;;;;;4928306;29;19934;-69
2023/04/08 13:21:54;;;;;;;;;;;9.10;99.90;;;;;;4963279;28;19968;-69
2023/04/08 13:24:19;;;;;;;;;;;9.20;99.90;;;;;;4925673;29;19976;-69
2023/04/08 13:26:45;;;;;;;;;;;9.10;99.90;;;;;;4930310;29;19929;-69
2023/04/08 13:29:11;;;;;;;;;;;9.00;99.90;;;;;;4927291;29;19963;-69
2023/04/08 13:31:36;;;;;;;;;;;9.00;99.90;;;;;;4955661;28;20327;-69
2023/04/08 13:34:02;;;;;;;;;;;9.10;99.90;;;;;;4939103;29;20386;-69
2023/04/08 13:36:27;;;;;;;;;;;9.10;99.90;;;;;;4952063;28;19918;-69
2023/04/08 13:38:53;;;;;;;;;;;9.10;99.90;;;;;;4920613;29;19978;-69
2023/04/08 13:41:20;;;;;;;;;;;9.10;99.90;;;;;;4904535;29;19943;-69
2023/04/08 13:43:46;;;;;;;;;;;9.10;99.90;;;;;;4921504;29;19919;-69
2023/04/08 13:46:11;;;;;;;;;;;9.10;99.90;;;;;;4944419;29;19915;-69
2023/04/08 13:48:37;;;;;;;;;;;9.20;99.90;;;;;;4912362;29;19914;-69
2023/04/08 13:51:02;;;;;;;;;;;9.20;99.90;;;;;;4944142;29;19911;-69
2023/04/08 13:53:29;;;;;;;;;;;9.10;99.90;;;;;;4917032;29;19911;-69
2023/04/08 13:55:57;;;;;;;;;;;9.20;99.90;;;;;;4953456;28;20758;-69
2023/04/08 13:58:23;;;;;;;;;;;9.10;99.90;;;;;;4916322;29;20328;-69
2023/04/08 14:00:50;;;;;;;;;;;9.20;99.90;;;;;;4909265;29;19969;-69
2023/04/08 14:03:16;;;;;;;;;;;9.20;99.90;;;;;;4952348;29;19919;-69
2023/04/08 14:05:41;;;;;;;;;;;9.20;99.90;;;;;;4911039;29;19915;-69
2023/04/08 14:08:07;;;;;;;;;;;9.20;99.90;;;;;;4923741;29;19918;-69
2023/04/08 14:10:33;;;;;;;;;;;9.20;99.90;;;;;;4955408;28;19925;-69
2023/04/08 14:12:59;;;;;;;;;;;9.10;99.90;;;;;;4953173;28;20013;-69
2023/04/08 14:15:25;;;;;;;;;;;9.10;99.90;;;;;;4945652;29;20365;-69
2023/04/08 14:17:50;;;;;;;;;;;9.20;99.90;;;;;;4933696;28;20725;-69
2023/04/08 14:20:16;;;;;;;;;;;9.10;99.90;;;;;;4943241;29;19982;-69
2023/04/08 14:22:41;;;;;;;;;;;9.20;99.90;;;;;;4929908;29;19918;-69
2023/04/08 14:25:07;;;;;;;;;;;9.20;99.90;;;;;;4941921;29;19919;-69